createdAt,value
2022-09-05T00:00:15.722Z,99146.00
2022-09-05T00:03:36.808Z,99143.00
2022-09-05T00:06:32.402Z,99145.00
2022-09-05T00:09:51.393Z,99133.00
2022-09-05T00:12:40.894Z,99125.00
2022-09-05T00:16:21.161Z,99120.00
2022-09-05T00:24:19.420Z,99126.00
2022-09-05T00:24:37.403Z,99115.00
2022-09-05T00:26:31.285Z,99117.00
2022-09-05T00:31:05.738Z,99117.00
2022-09-05T00:33:17.045Z,99127.00
2022-09-05T00:36:47.004Z,99129.00
2022-09-05T00:39:48.554Z,99137.00
2022-09-05T00:42:56.197Z,99139.00
2022-09-05T00:46:10.519Z,99130.00
2022-09-05T00:49:16.603Z,99124.00
2022-09-05T00:52:33.089Z,99124.00
2022-09-05T00:55:44.768Z,99122.00
2022-09-05T00:58:34.093Z,99125.00
2022-09-05T01:01:51.723Z,99114.00
2022-09-05T01:04:58.142Z,99123.00
2022-09-05T01:08:23.152Z,99121.00
2022-09-05T01:11:43.442Z,99132.00
2022-09-05T01:14:57.129Z,99126.00
2022-09-05T01:18:03.127Z,99124.00
2022-09-05T01:21:14.997Z,99129.00
2022-09-05T01:24:46.019Z,99128.00
2022-09-05T01:29:13.517Z,99129.00
2022-09-05T01:31:45.268Z,99124.00
2022-09-05T01:35:28.122Z,99129.00
2022-09-05T01:40:11.129Z,99121.00
2022-09-05T01:42:54.197Z,99115.00
2022-09-05T01:46:18.971Z,99112.00
2022-09-05T01:49:33.863Z,99110.00
2022-09-05T01:53:02.351Z,99112.00
2022-09-05T01:56:41.031Z,99109.00
2022-09-05T02:00:10.423Z,99115.00
2022-09-05T02:03:33.997Z,99120.00
2022-09-05T02:06:30.587Z,99122.00
2022-09-05T02:10:00.111Z,99115.00
2022-09-05T02:13:14.793Z,99109.00
2022-09-05T02:16:39.067Z,99116.00
2022-09-05T02:19:31.457Z,99111.00
2022-09-05T02:22:34.127Z,99107.00
2022-09-05T02:26:00.396Z,99113.00
2022-09-05T02:29:01.537Z,99112.00
2022-09-05T02:31:58.743Z,99112.00
2022-09-05T02:35:13.843Z,99117.00
2022-09-05T02:40:06.183Z,99124.00
2022-09-05T02:45:16.330Z,99119.00
2022-09-05T02:45:54.105Z,99122.00
2022-09-05T02:49:41.855Z,99116.00
2022-09-05T02:57:27.324Z,99113.00
2022-09-05T02:58:06.626Z,99118.00
2022-09-05T02:59:36.484Z,99120.00
2022-09-05T03:02:38.558Z,99122.00
2022-09-05T03:05:36.402Z,99123.00
2022-09-05T03:08:46.702Z,99121.00
2022-09-05T03:12:27.141Z,99114.00
2022-09-05T03:15:26.080Z,99118.00
2022-09-05T03:18:43.889Z,99116.00
2022-09-05T03:22:08.848Z,99113.00
2022-09-05T03:25:21.148Z,99107.00
2022-09-05T03:28:45.046Z,99104.00
2022-09-05T03:31:54.613Z,99107.00
2022-09-05T03:35:38.802Z,99104.00
2022-09-05T03:38:50.644Z,99102.00
2022-09-05T03:41:46.823Z,99108.00
2022-09-05T03:45:11.422Z,99104.00
2022-09-05T03:48:28.535Z,99106.00
2022-09-05T03:57:13.877Z,99107.00
2022-09-05T03:57:17.335Z,99108.00
2022-09-05T03:59:02.091Z,99115.00
2022-09-05T04:07:32.411Z,99118.00
2022-09-05T04:08:17.042Z,99113.00
2022-09-05T04:08:48.158Z,99123.00
2022-09-05T04:11:50.628Z,99118.00
2022-09-05T04:15:04.369Z,99124.00
2022-09-05T04:18:04.382Z,99130.00
2022-09-05T04:21:07.152Z,99135.00
2022-09-05T04:24:30.213Z,99126.00
2022-09-05T04:27:38.774Z,99136.00
2022-09-05T04:30:43.143Z,99140.00
2022-09-05T04:34:02.962Z,99134.00
2022-09-05T04:37:08.823Z,99144.00
2022-09-05T04:39:56.457Z,99136.00
2022-09-05T04:42:44.478Z,99147.00
2022-09-05T04:45:45.979Z,99147.00
2022-09-05T04:48:45.233Z,99151.00
2022-09-05T04:51:38.552Z,99147.00
2022-09-05T04:54:33.122Z,99153.00
2022-09-05T04:57:39.923Z,99159.00
2022-09-05T05:06:04.257Z,99154.00
2022-09-05T05:06:19.740Z,99158.00
2022-09-05T05:07:26.520Z,99167.00
2022-09-05T05:15:46.866Z,99167.00
2022-09-05T05:18:09.600Z,99168.00
2022-09-05T05:18:10.720Z,99167.00
2022-09-05T05:21:09.707Z,99170.00
2022-09-05T05:24:30.901Z,99178.00
2022-09-05T05:27:40.293Z,99185.00
2022-09-05T05:30:33.116Z,99186.00
2022-09-05T05:33:28.527Z,99186.00
2022-09-05T05:36:33.443Z,99182.00
2022-09-05T05:39:28.642Z,99189.00
2022-09-05T05:42:24.308Z,99193.00
2022-09-05T05:45:33.246Z,99193.00
2022-09-05T05:48:21.787Z,99198.00
2022-09-05T05:52:01.305Z,99198.00
2022-09-05T05:55:50.802Z,99195.00
2022-09-05T05:59:15.617Z,99194.00
2022-09-05T06:03:09.757Z,99185.00
2022-09-05T06:06:07.552Z,99181.00
2022-09-05T06:14:48.344Z,99181.00
2022-09-05T06:15:05.860Z,99182.00
2022-09-05T06:16:27.632Z,99190.00
2022-09-05T06:21:21.076Z,99188.00
2022-09-05T06:23:39.795Z,99192.00
2022-09-05T06:27:19.000Z,99190.00
2022-09-05T06:30:21.717Z,99194.00
2022-09-05T06:33:46.212Z,99196.00
2022-09-05T06:37:01.052Z,99187.00
2022-09-05T06:40:20.313Z,99194.00
2022-09-05T06:43:43.958Z,99189.00
2022-09-05T06:46:55.101Z,99191.00
2022-09-05T06:50:27.157Z,99197.00
2022-09-05T06:53:56.218Z,99201.00
2022-09-05T06:57:20.907Z,99210.00
2022-09-05T07:00:56.027Z,99195.00
2022-09-05T07:04:54.013Z,99206.00
2022-09-05T07:07:30.272Z,99212.00
2022-09-05T07:10:41.443Z,99221.00
2022-09-05T07:13:44.813Z,99219.00
2022-09-05T07:16:56.193Z,99208.00
2022-09-05T07:20:26.192Z,99211.00
2022-09-05T07:24:06.668Z,99218.00
2022-09-05T07:26:54.245Z,99208.00
2022-09-05T07:29:53.399Z,99202.00
2022-09-05T07:32:57.092Z,99208.00
2022-09-05T07:35:45.858Z,99215.00
2022-09-05T07:38:54.992Z,99214.00
2022-09-05T07:41:56.564Z,99211.00
2022-09-05T07:45:11.674Z,99212.00
2022-09-05T07:48:34.303Z,99222.00
2022-09-05T07:55:23.450Z,99212.00
2022-09-05T07:57:00.913Z,99219.00
2022-09-05T07:58:00.084Z,99223.00
2022-09-05T08:00:55.044Z,99221.00
2022-09-05T08:03:44.278Z,99221.00
2022-09-05T08:07:20.169Z,99228.00
2022-09-05T08:10:07.063Z,99232.00
2022-09-05T08:13:24.020Z,99228.00
2022-09-05T08:16:21.421Z,99231.00
2022-09-05T08:19:36.599Z,99227.00
2022-09-05T08:22:31.347Z,99229.00
2022-09-05T08:25:36.345Z,99224.00
2022-09-05T08:29:11.280Z,99221.00
2022-09-05T08:32:47.098Z,99224.00
2022-09-05T08:36:02.077Z,99218.00
2022-09-05T08:38:51.173Z,99211.00
2022-09-05T08:42:05.798Z,99219.00
2022-09-05T08:46:47.821Z,99216.00
2022-09-05T08:49:36.773Z,99216.00
2022-09-05T08:53:26.729Z,99220.00
2022-09-05T08:56:51.173Z,99214.00
2022-09-05T09:00:18.606Z,99207.00
2022-09-05T09:03:22.512Z,99203.00
2022-09-05T09:06:40.892Z,99197.00
2022-09-05T09:09:40.607Z,99203.00
2022-09-05T09:12:48.829Z,99187.00
2022-09-05T09:16:07.592Z,99192.00
2022-09-05T09:18:57.659Z,99189.00
2022-09-05T09:22:38.376Z,99196.00
2022-09-05T09:25:40.107Z,99189.00
2022-09-05T09:29:07.353Z,99188.00
2022-09-05T09:32:24.367Z,99179.00
2022-09-05T09:35:18.331Z,99175.00
2022-09-05T09:38:25.780Z,99172.00
2022-09-05T09:41:40.737Z,99171.00
2022-09-05T09:45:28.525Z,99164.00
2022-09-05T09:48:16.877Z,99172.00
2022-09-05T09:51:27.045Z,99176.00
2022-09-05T09:54:45.737Z,99170.00
2022-09-05T09:58:08.860Z,99162.00
2022-09-05T10:01:35.254Z,99166.00
2022-09-05T10:10:39.487Z,99167.00
2022-09-05T10:10:57.756Z,99170.00
2022-09-05T10:13:09.195Z,99167.00
2022-09-05T10:16:31.336Z,99165.00
2022-09-05T10:23:05.722Z,99155.00
2022-09-05T10:26:17.333Z,99165.00
2022-09-05T10:29:36.960Z,99150.00
2022-09-05T10:35:08.774Z,99144.00
2022-09-05T10:36:59.294Z,99147.00
2022-09-05T10:39:51.649Z,99142.00
2022-09-05T10:42:59.831Z,99141.00
2022-09-05T10:45:57.334Z,99134.00
2022-09-05T10:48:53.602Z,99135.00
2022-09-05T10:52:22.299Z,99117.00
2022-09-05T10:55:26.361Z,99117.00
2022-09-05T11:01:08.287Z,99117.00
2022-09-05T11:02:30.157Z,99115.00
2022-09-05T11:05:30.890Z,99117.00
2022-09-05T11:08:34.397Z,99114.00
2022-09-05T11:11:33.921Z,99111.00
2022-09-05T11:14:52.439Z,99107.00
2022-09-05T11:17:51.517Z,99112.00
2022-09-05T11:20:55.964Z,99111.00
2022-09-05T11:23:57.219Z,99107.00
2022-09-05T11:27:23.229Z,99104.00
2022-09-05T11:30:28.392Z,99102.00
2022-09-05T11:39:56.951Z,99106.00
2022-09-05T11:39:58.168Z,99109.00
2022-09-05T11:41:12.477Z,99095.00
2022-09-05T11:44:33.472Z,99101.00
2022-09-05T11:47:52.097Z,99100.00
2022-09-05T11:50:53.813Z,99099.00
2022-09-05T11:54:01.643Z,99093.00
2022-09-05T11:57:33.272Z,99089.00
2022-09-05T12:00:40.932Z,99087.00
2022-09-05T12:04:01.121Z,99087.00
2022-09-05T12:07:00.690Z,99087.00
2022-09-05T12:10:46.074Z,99087.00
2022-09-05T12:13:56.599Z,99075.00
2022-09-05T12:17:34.806Z,99081.00
2022-09-05T12:20:54.424Z,99072.00
2022-09-05T12:25:25.891Z,99074.00
2022-09-05T12:27:46.023Z,99070.00
2022-09-05T12:31:07.141Z,99060.00
2022-09-05T12:36:03.952Z,99058.00
2022-09-05T12:40:44.818Z,99057.00
2022-09-05T12:41:38.633Z,99041.00
2022-09-05T12:44:36.532Z,99052.00
2022-09-05T12:47:17.189Z,99042.00
2022-09-05T12:50:19.092Z,99037.00
2022-09-05T12:53:40.629Z,99034.00
2022-09-05T12:58:09.040Z,99044.00
2022-09-05T13:03:11.484Z,99036.00
2022-09-05T13:03:31.806Z,99025.00
2022-09-05T13:06:39.886Z,99028.00
2022-09-05T13:11:42.761Z,99023.00
2022-09-05T13:14:48.321Z,99024.00
2022-09-05T13:16:07.356Z,99019.00
2022-09-05T13:19:08.918Z,99011.00
2022-09-05T13:21:58.733Z,99020.00
2022-09-05T13:24:59.988Z,99014.00
2022-09-05T13:27:56.909Z,99012.00
2022-09-05T13:37:55.782Z,99007.00
2022-09-05T13:38:19.479Z,99011.00
2022-09-05T13:41:42.089Z,99004.00
2022-09-05T13:44:37.853Z,98995.00
2022-09-05T13:48:12.557Z,98991.00
2022-09-05T13:51:33.356Z,98992.00
2022-09-05T13:55:01.327Z,98998.00
2022-09-05T13:58:36.435Z,98986.00
2022-09-05T14:01:35.737Z,98993.00
2022-09-05T14:05:19.407Z,98985.00
2022-09-05T14:08:33.789Z,98985.00
2022-09-05T14:12:15.220Z,98988.00
2022-09-05T14:15:42.977Z,98980.00
2022-09-05T14:19:04.535Z,98981.00
2022-09-05T14:21:52.562Z,98980.00
2022-09-05T14:24:48.651Z,98979.00
2022-09-05T14:27:49.917Z,98975.00
2022-09-05T14:32:50.412Z,98973.00
2022-09-05T14:37:49.195Z,98969.00
2022-09-05T14:38:04.355Z,98962.00
2022-09-05T14:41:39.861Z,98965.00
2022-09-05T14:45:15.556Z,98967.00
2022-09-05T14:48:25.209Z,98973.00
2022-09-05T14:51:30.089Z,98963.00
2022-09-05T15:02:41.212Z,98960.00
2022-09-05T15:02:50.084Z,98958.00
2022-09-05T15:07:45.692Z,98954.00
2022-09-05T15:12:16.354Z,98952.00
2022-09-05T15:14:10.252Z,98956.00
2022-09-05T15:17:05.796Z,98946.00
2022-09-05T15:20:07.518Z,98938.00
2022-09-05T15:22:57.500Z,98944.00
2022-09-05T15:25:59.368Z,98940.00
2022-09-05T15:28:51.137Z,98939.00
2022-09-05T15:32:28.312Z,98926.00
2022-09-05T15:35:35.996Z,98936.00
2022-09-05T15:38:55.318Z,98935.00
2022-09-05T15:41:44.732Z,98936.00
2022-09-05T15:44:43.309Z,98936.00
2022-09-05T15:47:48.145Z,98931.00
2022-09-05T15:50:51.613Z,98932.00
2022-09-05T15:53:39.624Z,98931.00
2022-09-05T15:56:28.271Z,98937.00
2022-09-05T15:59:16.392Z,98921.00
2022-09-05T16:02:15.361Z,98921.00
2022-09-05T16:10:27.088Z,98926.00
2022-09-05T16:10:50.408Z,98924.00
2022-09-05T16:15:19.872Z,98926.00
2022-09-05T16:23:13.469Z,98929.00
2022-09-05T16:23:23.671Z,98923.00
2022-09-05T16:24:59.949Z,98924.00
2022-09-05T16:28:20.172Z,98915.00
2022-09-05T16:31:21.985Z,98931.00
2022-09-05T16:34:27.855Z,98927.00
2022-09-05T16:37:24.317Z,98921.00
2022-09-05T16:40:40.577Z,98921.00
2022-09-05T16:43:37.323Z,98917.00
2022-09-05T16:46:39.432Z,98911.00
2022-09-05T16:49:43.130Z,98907.00
2022-09-05T16:52:54.186Z,98912.00
2022-09-05T16:56:08.246Z,98907.00
2022-09-05T16:59:03.076Z,98908.00
2022-09-05T17:02:07.435Z,98908.00
2022-09-05T17:05:10.159Z,98907.00
2022-09-05T17:08:23.802Z,98911.00
2022-09-05T17:11:29.937Z,98905.00
2022-09-05T17:14:22.652Z,98907.00
2022-09-05T17:17:36.524Z,98914.00
2022-09-05T17:20:29.586Z,98901.00
2022-09-05T17:28:54.075Z,98911.00
2022-09-05T17:29:49.094Z,98911.00
2022-09-05T17:33:04.557Z,98910.00
2022-09-05T17:36:36.370Z,98925.00
2022-09-05T17:40:30.253Z,98922.00
2022-09-05T17:43:33.207Z,98926.00
2022-09-05T17:46:35.054Z,98929.00
2022-09-05T17:49:45.787Z,98930.00
2022-09-05T17:52:59.707Z,98931.00
2022-09-05T17:55:47.807Z,98936.00
2022-09-05T17:58:49.149Z,98944.00
2022-09-05T18:01:38.008Z,98949.00
2022-09-05T18:04:43.218Z,98949.00
2022-09-05T18:07:52.337Z,98943.00
2022-09-05T18:11:13.999Z,98949.00
2022-09-05T18:14:24.574Z,98951.00
2022-09-05T18:17:38.529Z,98959.00
2022-09-05T18:21:21.842Z,98960.00
2022-09-05T18:24:19.265Z,98959.00
2022-09-05T18:28:03.845Z,98967.00
2022-09-05T18:30:38.391Z,98969.00
2022-09-05T18:33:54.094Z,98965.00
2022-09-05T18:36:35.145Z,98968.00
2022-09-05T18:39:37.608Z,98968.00
2022-09-05T18:42:34.348Z,98969.00
2022-09-05T18:45:28.843Z,98978.00
2022-09-05T18:48:30.567Z,98984.00
2022-09-05T18:51:31.840Z,98982.00
2022-09-05T18:54:25.451Z,98982.00
2022-09-05T18:57:28.348Z,98982.00
2022-09-05T19:00:48.165Z,98986.00
2022-09-05T19:03:36.605Z,98989.00
2022-09-05T19:06:35.752Z,98983.00
2022-09-05T19:09:31.828Z,98975.00
2022-09-05T19:12:33.901Z,98963.00
2022-09-05T19:15:36.543Z,98965.00
2022-09-05T19:18:27.821Z,98963.00
2022-09-05T19:21:22.171Z,98963.00
2022-09-05T19:24:22.057Z,98959.00
2022-09-05T19:28:13.967Z,98967.00
2022-09-05T19:36:56.445Z,98961.00
2022-09-05T19:37:12.859Z,98963.00
2022-09-05T19:47:17.956Z,98953.00
2022-09-05T19:47:35.381Z,98954.00
2022-09-05T19:47:36.182Z,98952.00
2022-09-05T19:49:36.524Z,98946.00
2022-09-05T19:52:24.803Z,98944.00
2022-09-05T19:55:26.235Z,98949.00
2022-09-05T19:58:22.138Z,98952.00
2022-09-05T20:01:18.101Z,98950.00
2022-09-05T20:04:07.697Z,98944.00
2022-09-05T20:06:55.388Z,98944.00
2022-09-05T20:09:49.094Z,98945.00
2022-09-05T20:12:39.357Z,98944.00
2022-09-05T20:15:37.138Z,98942.00
2022-09-05T20:18:40.343Z,98939.00
2022-09-05T20:21:33.948Z,98931.00
2022-09-05T20:24:21.724Z,98933.00
2022-09-05T20:27:11.689Z,98931.00
2022-09-05T20:30:11.667Z,98933.00
2022-09-05T20:33:07.298Z,98930.00
2022-09-05T20:42:40.086Z,98926.00
2022-09-05T20:43:21.349Z,98931.00
2022-09-05T20:43:22.126Z,98932.00
2022-09-05T20:47:17.368Z,98931.00
2022-09-05T20:54:14.408Z,98929.00
2022-09-05T20:54:27.072Z,98928.00
2022-09-05T20:55:42.120Z,98928.00
2022-09-05T20:58:31.958Z,98925.00
2022-09-05T21:01:23.735Z,98918.00
2022-09-05T21:04:11.548Z,98912.00
2022-09-05T21:07:19.373Z,98914.00
2022-09-05T21:10:19.238Z,98913.00
2022-09-05T21:13:06.834Z,98907.00
2022-09-05T21:15:55.944Z,98900.00
2022-09-05T21:18:44.958Z,98901.00
2022-09-05T21:21:35.268Z,98897.00
2022-09-05T21:24:25.813Z,98893.00
2022-09-05T21:27:24.242Z,98891.00
2022-09-05T21:30:31.156Z,98895.00
2022-09-05T21:33:44.462Z,98895.00
2022-09-05T21:36:32.153Z,98891.00
2022-09-05T21:39:21.508Z,98885.00
2022-09-05T21:46:38.663Z,98893.00
2022-09-05T21:47:48.938Z,98894.00
2022-09-05T21:48:26.866Z,98887.00
2022-09-05T21:51:15.477Z,98878.00
2022-09-05T21:59:17.233Z,98888.00
2022-09-05T21:59:21.007Z,98882.00
2022-09-05T22:00:35.002Z,98882.00
2022-09-05T22:03:24.528Z,98870.00
2022-09-05T22:06:12.188Z,98878.00
2022-09-05T23:04:29.190Z,98870.00
2022-09-05T23:07:16.783Z,98869.00
2022-09-05T23:10:04.864Z,98865.00
2022-09-05T23:12:52.834Z,98869.00
2022-09-05T23:15:40.527Z,98867.00
2022-09-05T23:18:32.705Z,98872.00
2022-09-05T23:21:20.689Z,98861.00
2022-09-05T23:24:08.247Z,98865.00
2022-09-05T23:26:55.700Z,98865.00
2022-09-05T23:29:43.230Z,98864.00
2022-09-05T23:32:30.679Z,98854.00
2022-09-05T23:35:19.634Z,98851.00
2022-09-05T23:38:11.506Z,98852.00
2022-09-05T23:41:09.456Z,98846.00
2022-09-05T23:43:56.901Z,98851.00
2022-09-05T23:46:45.207Z,98847.00
2022-09-05T23:49:32.791Z,98847.00
2022-09-05T23:52:20.285Z,98850.00
2022-09-05T23:55:13.425Z,98847.00
2022-09-05T23:58:01.165Z,98847.00
